sensor_id;sensor_type;location;lat;lon;timestamp;pressure;altitude;pressure_sealevel;temperature;humidity
60089;BME280;45961;53.574;55.878;2022-07-29T00:00:24;99785.19;;;15.75;73.44
60089;BME280;45961;53.574;55.878;2022-07-29T00:01:26;99789.50;;;15.77;73.41
60089;BME280;45961;53.574;55.878;2022-07-29T00:02:27;99788.50;;;15.85;73.24
60089;BME280;45961;53.574;55.878;2022-07-29T00:03:28;99785.03;;;15.84;73.49
60089;BME280;45961;53.574;55.878;2022-07-29T00:04:29;99779.03;;;15.81;73.08
60089;BME280;45961;53.574;55.878;2022-07-29T00:05:30;99781.53;;;15.84;73.08
60089;BME280;45961;53.574;55.878;2022-07-29T00:06:31;99792.88;;;15.83;73.23
60089;BME280;45961;53.574;55.878;2022-07-29T00:07:32;99794.63;;;15.82;73.07
60089;BME280;45961;53.574;55.878;2022-07-29T00:08:33;99795.53;;;15.81;72.92
60089;BME280;45961;53.574;55.878;2022-07-29T00:09:34;99792.25;;;15.70;73.15
60089;BME280;45961;53.574;55.878;2022-07-29T00:10:35;99794.06;;;15.66;73.38
60089;BME280;45961;53.574;55.878;2022-07-29T00:11:37;99789.69;;;15.68;73.35
60089;BME280;45961;53.574;55.878;2022-07-29T00:12:38;99793.16;;;15.69;73.35
60089;BME280;45961;53.574;55.878;2022-07-29T00:13:38;99798.47;;;15.61;73.60
60089;BME280;45961;53.574;55.878;2022-07-29T00:14:40;99794.97;;;15.62;73.60
60089;BME280;45961;53.574;55.878;2022-07-29T00:15:41;99800.25;;;15.59;73.68
60089;BME280;45961;53.574;55.878;2022-07-29T00:16:43;99797.63;;;15.59;73.51
60089;BME280;45961;53.574;55.878;2022-07-29T00:17:44;99790.97;;;15.43;74.06
60089;BME280;45961;53.574;55.878;2022-07-29T00:18:46;99797.81;;;15.50;74.31
60089;BME280;45961;53.574;55.878;2022-07-29T00:19:47;99796.91;;;15.52;74.22
60089;BME280;45961;53.574;55.878;2022-07-29T00:20:48;99797.75;;;15.53;73.89
60089;BME280;45961;53.574;55.878;2022-07-29T00:21:49;99794.38;;;15.48;74.38
60089;BME280;45961;53.574;55.878;2022-07-29T00:22:50;99794.44;;;15.45;74.07
60089;BME280;45961;53.574;55.878;2022-07-29T00:23:51;99796.19;;;15.43;74.15
60089;BME280;45961;53.574;55.878;2022-07-29T00:24:52;99802.47;;;15.31;74.83
60089;BME280;45961;53.574;55.878;2022-07-29T00:25:53;99796.66;;;15.17;75.05
60089;BME280;45961;53.574;55.878;2022-07-29T00:26:54;99805.84;;;15.38;74.84
60089;BME280;45961;53.574;55.878;2022-07-29T00:27:55;99798.75;;;15.46;74.47
60089;BME280;45961;53.574;55.878;2022-07-29T00:28:56;99798.88;;;15.38;74.53
60089;BME280;45961;53.574;55.878;2022-07-29T00:29:57;99798.75;;;15.46;74.55
60089;BME280;45961;53.574;55.878;2022-07-29T00:30:59;99786.78;;;15.34;74.34
60089;BME280;45961;53.574;55.878;2022-07-29T00:32:00;99799.69;;;15.42;74.34
60089;BME280;45961;53.574;55.878;2022-07-29T00:33:03;99801.28;;;15.50;74.31
60089;BME280;45961;53.574;55.878;2022-07-29T00:34:04;99803.88;;;15.52;74.00
60089;BME280;45961;53.574;55.878;2022-07-29T00:35:05;99804.19;;;15.34;74.29
60089;BME280;45961;53.574;55.878;2022-07-29T00:36:25;99796.56;;;15.21;74.97
60089;BME280;45961;53.574;55.878;2022-07-29T00:37:26;99807.75;;;15.28;75.31
60089;BME280;45961;53.574;55.878;2022-07-29T00:38:27;99805.97;;;15.30;75.20
60089;BME280;45961;53.574;55.878;2022-07-29T00:39:29;99806.75;;;15.37;74.76
60089;BME280;45961;53.574;55.878;2022-07-29T00:40:30;99801.75;;;15.23;74.81
60089;BME280;45961;53.574;55.878;2022-07-29T00:41:31;99795.81;;;15.13;75.15
60089;BME280;45961;53.574;55.878;2022-07-29T00:42:42;99810.38;;;15.28;75.24
60089;BME280;45961;53.574;55.878;2022-07-29T00:43:43;99799.00;;;15.30;74.91
60089;BME280;45961;53.574;55.878;2022-07-29T00:44:44;99796.19;;;15.43;74.70
60089;BME280;45961;53.574;55.878;2022-07-29T00:45:45;99797.00;;;15.46;74.36
60089;BME280;45961;53.574;55.878;2022-07-29T00:46:46;99801.25;;;15.52;74.21
60089;BME280;45961;53.574;55.878;2022-07-29T00:47:47;99795.19;;;15.50;73.93
60089;BME280;45961;53.574;55.878;2022-07-29T00:48:48;99805.47;;;15.59;73.83
60089;BME280;45961;53.574;55.878;2022-07-29T00:49:49;99808.28;;;15.48;73.83
60089;BME280;45961;53.574;55.878;2022-07-29T00:50:50;99799.56;;;15.49;74.09
60089;BME280;45961;53.574;55.878;2022-07-29T00:51:51;99783.09;;;15.46;73.87
60089;BME280;45961;53.574;55.878;2022-07-29T00:52:52;99807.19;;;15.60;73.79
60089;BME280;45961;53.574;55.878;2022-07-29T00:53:54;99807.19;;;15.60;73.96
60089;BME280;45961;53.574;55.878;2022-07-29T00:54:55;99795.09;;;15.56;74.17
60089;BME280;45961;53.574;55.878;2022-07-29T00:55:57;99803.75;;;15.58;74.20
60089;BME280;45961;53.574;55.878;2022-07-29T00:56:59;99800.25;;;15.59;74.50
60089;BME280;45961;53.574;55.878;2022-07-29T00:58:00;99805.53;;;15.56;74.30
60089;BME280;45961;53.574;55.878;2022-07-29T00:59:01;99802.13;;;15.51;74.45
60089;BME280;45961;53.574;55.878;2022-07-29T01:00:07;99802.16;;;15.49;74.21
60089;BME280;45961;53.574;55.878;2022-07-29T01:01:09;99808.25;;;15.50;74.45
60089;BME280;45961;53.574;55.878;2022-07-29T01:02:10;99803.06;;;15.48;74.60
60089;BME280;45961;53.574;55.878;2022-07-29T01:03:11;99798.78;;;15.44;74.48
60089;BME280;45961;53.574;55.878;2022-07-29T01:04:13;99798.78;;;15.43;74.85
60089;BME280;45961;53.574;55.878;2022-07-29T01:05:16;99797.06;;;15.42;74.50
60089;BME280;45961;53.574;55.878;2022-07-29T01:06:18;99768.91;;;15.13;74.61
60089;BME280;45961;53.574;55.878;2022-07-29T01:07:19;99788.53;;;15.34;74.70
60089;BME280;45961;53.574;55.878;2022-07-29T01:08:21;99792.84;;;15.36;74.64
60089;BME280;45961;53.574;55.878;2022-07-29T01:09:23;99791.13;;;15.34;74.93
60089;BME280;45961;53.574;55.878;2022-07-29T01:10:25;99804.22;;;15.30;75.38
60089;BME280;45961;53.574;55.878;2022-07-29T01:11:27;99799.91;;;15.29;75.40
60089;BME280;45961;53.574;55.878;2022-07-29T01:12:28;99799.91;;;15.29;75.08
60089;BME280;45961;53.574;55.878;2022-07-29T01:13:30;99803.41;;;15.28;75.31
60089;BME280;45961;53.574;55.878;2022-07-29T01:14:32;99806.81;;;15.30;75.36
60089;BME280;45961;53.574;55.878;2022-07-29T01:15:38;99794.72;;;15.28;75.48
60089;BME280;45961;53.574;55.878;2022-07-29T01:18:33;99800.06;;;15.19;75.86
60089;BME280;45961;53.574;55.878;2022-07-29T01:21:20;99800.31;;;15.05;75.79
60089;BME280;45961;53.574;55.878;2022-07-29T01:22:29;99790.78;;;15.02;75.71
60089;BME280;45961;53.574;55.878;2022-07-29T01:25:12;99798.78;;;14.92;75.90
60089;BME280;45961;53.574;55.878;2022-07-29T01:30:16;99812.97;;;14.71;77.32
60089;BME280;45961;53.574;55.878;2022-07-29T01:31:27;99805.16;;;14.72;77.41
60089;BME280;45961;53.574;55.878;2022-07-29T01:32:32;99813.69;;;14.82;77.39
60089;BME280;45961;53.574;55.878;2022-07-29T01:33:39;99816.19;;;14.90;77.26
60089;BME280;45961;53.574;55.878;2022-07-29T01:36:11;99805.47;;;15.08;76.37
60089;BME280;45961;53.574;55.878;2022-07-29T01:37:50;99797.91;;;14.93;76.75
60089;BME280;45961;53.574;55.878;2022-07-29T01:39:28;99804.59;;;15.09;76.79
60089;BME280;45961;53.574;55.878;2022-07-29T01:40:34;99807.88;;;15.20;76.33
60089;BME280;45961;53.574;55.878;2022-07-29T01:41:40;99800.16;;;15.14;76.50
60089;BME280;45961;53.574;55.878;2022-07-29T01:42:54;99801.91;;;15.14;76.78
60089;BME280;45961;53.574;55.878;2022-07-29T01:44:11;99796.47;;;15.26;76.34
60089;BME280;45961;53.574;55.878;2022-07-29T01:46:34;99795.25;;;15.47;76.19
60089;BME280;45961;53.574;55.878;2022-07-29T01:47:43;99800.25;;;15.59;75.67
60089;BME280;45961;53.574;55.878;2022-07-29T01:48:48;99797.59;;;15.62;75.29
60089;BME280;45961;53.574;55.878;2022-07-29T01:49:56;99806.25;;;15.63;75.62
60089;BME280;45961;53.574;55.878;2022-07-29T01:51:02;99804.97;;;15.88;74.64
60089;BME280;45961;53.574;55.878;2022-07-29T01:52:13;99799.50;;;16.42;74.04
60089;BME280;45961;53.574;55.878;2022-07-29T01:53:24;99799.81;;;17.06;71.75
60089;BME280;45961;53.574;55.878;2022-07-29T01:54:32;99794.41;;;17.48;69.88
60089;BME280;45961;53.574;55.878;2022-07-29T01:55:38;99798.38;;;17.95;68.13
60089;BME280;45961;53.574;55.878;2022-07-29T01:56:42;99797.88;;;18.43;66.83
60089;BME280;45961;53.574;55.878;2022-07-29T01:57:46;99795.44;;;18.95;65.29
60089;BME280;45961;53.574;55.878;2022-07-29T01:58:51;99788.47;;;19.47;63.21
60089;BME280;45961;53.574;55.878;2022-07-29T01:59:53;99787.31;;;19.81;61.99
60089;BME280;45961;53.574;55.878;2022-07-29T02:00:57;99790.94;;;19.52;62.53
60089;BME280;45961;53.574;55.878;2022-07-29T02:02:01;99790.19;;;19.21;61.57
60089;BME280;45961;53.574;55.878;2022-07-29T02:03:08;99782.88;;;18.78;62.53
60089;BME280;45961;53.574;55.878;2022-07-29T02:04:10;99790.09;;;19.24;63.27
60089;BME280;45961;53.574;55.878;2022-07-29T02:05:15;99790.03;;;18.99;62.65
60089;BME280;45961;53.574;55.878;2022-07-29T02:06:19;99788.13;;;19.31;62.51
60089;BME280;45961;53.574;55.878;2022-07-29T02:07:23;99784.34;;;19.66;61.66
60089;BME280;45961;53.574;55.878;2022-07-29T02:08:25;99790.09;;;19.51;61.17
60089;BME280;45961;53.574;55.878;2022-07-29T02:09:28;99791.53;;;19.33;61.50
60089;BME280;45961;53.574;55.878;2022-07-29T02:10:35;99788.31;;;19.52;61.60
60089;BME280;45961;53.574;55.878;2022-07-29T02:11:39;99798.09;;;18.93;62.70
60089;BME280;45961;53.574;55.878;2022-07-29T02:12:42;99797.97;;;18.98;63.26
60089;BME280;45961;53.574;55.878;2022-07-29T02:14:05;99792.81;;;19.48;62.01
60089;BME280;45961;53.574;55.878;2022-07-29T02:15:08;99791.66;;;20.05;61.18
60089;BME280;45961;53.574;55.878;2022-07-29T02:16:10;99780.69;;;20.41;59.98
60089;BME280;45961;53.574;55.878;2022-07-29T02:17:13;99789.69;;;20.35;58.42
60089;BME280;45961;53.574;55.878;2022-07-29T02:18:23;99791.81;;;20.02;59.62
60089;BME280;45961;53.574;55.878;2022-07-29T02:19:26;99790.66;;;20.09;59.78
60089;BME280;45961;53.574;55.878;2022-07-29T02:20:28;99793.56;;;20.25;59.41
60089;BME280;45961;53.574;55.878;2022-07-29T02:21:31;99795.72;;;19.65;59.67
60089;BME280;45961;53.574;55.878;2022-07-29T02:22:36;99795.56;;;19.95;60.16
60089;BME280;45961;53.574;55.878;2022-07-29T02:23:38;99791.84;;;20.01;59.67
60089;BME280;45961;53.574;55.878;2022-07-29T02:24:40;99796.28;;;20.45;58.99
60089;BME280;45961;53.574;55.878;2022-07-29T02:25:42;99800.66;;;20.46;57.93
60089;BME280;45961;53.574;55.878;2022-07-29T02:26:45;99801.81;;;20.39;58.32
60089;BME280;45961;53.574;55.878;2022-07-29T02:27:46;99792.22;;;19.90;59.88
60089;BME280;45961;53.574;55.878;2022-07-29T02:28:51;99798.03;;;20.23;58.82
60089;BME280;45961;53.574;55.878;2022-07-29T02:29:59;99799.50;;;19.83;59.67
60089;BME280;45961;53.574;55.878;2022-07-29T02:31:02;99804.03;;;20.27;59.01
60089;BME280;45961;53.574;55.878;2022-07-29T02:32:04;99795.31;;;20.26;59.19
60089;BME280;45961;53.574;55.878;2022-07-29T02:33:08;99796.38;;;20.67;57.96
60089;BME280;45961;53.574;55.878;2022-07-29T02:34:11;99800.09;;;21.06;56.77
60089;BME280;45961;53.574;55.878;2022-07-29T02:35:14;99782.09;;;21.39;56.22
60089;BME280;45961;53.574;55.878;2022-07-29T02:36:17;99790.72;;;21.20;56.03
60089;BME280;45961;53.574;55.878;2022-07-29T02:37:20;99796.09;;;20.52;56.77
60089;BME280;45961;53.574;55.878;2022-07-29T02:38:22;99793.47;;;20.28;57.67
60089;BME280;45961;53.574;55.878;2022-07-29T02:39:44;99776.59;;;19.87;58.60
60089;BME280;45961;53.574;55.878;2022-07-29T02:40:46;99798.97;;;19.97;58.58
60089;BME280;45961;53.574;55.878;2022-07-29T02:41:55;99782.06;;;19.81;58.47
60089;BME280;45961;53.574;55.878;2022-07-29T02:42:59;99791.28;;;19.92;58.93
60089;BME280;45961;53.574;55.878;2022-07-29T02:44:10;99811.53;;;19.89;59.29
60089;BME280;45961;53.574;55.878;2022-07-29T02:45:11;99803.06;;;19.81;59.68
60089;BME280;45961;53.574;55.878;2022-07-29T02:46:15;99800.38;;;20.31;58.72
60089;BME280;45961;53.574;55.878;2022-07-29T02:47:52;99798.22;;;20.18;58.04
60089;BME280;45961;53.574;55.878;2022-07-29T02:49:17;99806.06;;;20.42;57.78
60089;BME280;45961;53.574;55.878;2022-07-29T02:50:34;99802.97;;;20.78;56.91
60089;BME280;45961;53.574;55.878;2022-07-29T02:51:44;99792.84;;;20.90;56.08
60089;BME280;45961;53.574;55.878;2022-07-29T02:53:48;99796.81;;;20.79;56.32
60089;BME280;45961;53.574;55.878;2022-07-29T02:54:58;99784.88;;;20.92;56.84
60089;BME280;45961;53.574;55.878;2022-07-29T02:56:13;99790.13;;;20.70;56.43
60089;BME280;45961;53.574;55.878;2022-07-29T02:57:42;99787.88;;;20.83;56.00
60089;BME280;45961;53.574;55.878;2022-07-29T02:58:49;99788.72;;;20.83;56.23
60089;BME280;45961;53.574;55.878;2022-07-29T02:59:53;99790.75;;;20.77;56.92
60089;BME280;45961;53.574;55.878;2022-07-29T03:01:23;99792.22;;;21.26;56.25
60089;BME280;45961;53.574;55.878;2022-07-29T03:02:45;99787.41;;;21.37;55.02
60089;BME280;45961;53.574;55.878;2022-07-29T03:03:52;99784.53;;;21.43;55.15
60089;BME280;45961;53.574;55.878;2022-07-29T03:04:55;99788.97;;;21.41;55.20
60089;BME280;45961;53.574;55.878;2022-07-29T03:05:59;99794.00;;;21.48;55.45
60089;BME280;45961;53.574;55.878;2022-07-29T03:07:01;99790.09;;;21.14;55.22
60089;BME280;45961;53.574;55.878;2022-07-29T03:08:05;99795.69;;;21.49;54.74
60089;BME280;45961;53.574;55.878;2022-07-29T03:09:08;99802.69;;;21.50;54.49
60089;BME280;45961;53.574;55.878;2022-07-29T03:10:11;99800.00;;;21.29;54.52
60089;BME280;45961;53.574;55.878;2022-07-29T03:11:13;99806.09;;;20.87;55.19
60089;BME280;45961;53.574;55.878;2022-07-29T03:12:19;99803.06;;;20.53;56.67
60089;BME280;45961;53.574;55.878;2022-07-29T03:13:20;99807.19;;;19.88;57.90
60089;BME280;45961;53.574;55.878;2022-07-29T03:14:22;99806.50;;;19.83;58.60
60089;BME280;45961;53.574;55.878;2022-07-29T03:15:24;99797.16;;;19.99;57.98
60089;BME280;45961;53.574;55.878;2022-07-29T03:16:26;99798.41;;;19.89;58.38
60089;BME280;45961;53.574;55.878;2022-07-29T03:17:27;99807.56;;;19.77;58.49
60089;BME280;45961;53.574;55.878;2022-07-29T03:18:29;99811.59;;;19.36;59.82
60089;BME280;45961;53.574;55.878;2022-07-29T03:19:31;99804.47;;;19.13;59.89
60089;BME280;45961;53.574;55.878;2022-07-29T03:20:32;99806.00;;;19.20;60.33
60089;BME280;45961;53.574;55.878;2022-07-29T03:21:33;99817.44;;;19.44;60.22
60089;BME280;45961;53.574;55.878;2022-07-29T03:22:42;99816.53;;;19.45;60.20
60089;BME280;45961;53.574;55.878;2022-07-29T03:23:48;99807.22;;;19.10;60.99
60089;BME280;45961;53.574;55.878;2022-07-29T03:24:49;99814.50;;;19.00;61.45
60089;BME280;45961;53.574;55.878;2022-07-29T03:25:51;99805.31;;;18.87;61.42
60089;BME280;45961;53.574;55.878;2022-07-29T03:26:52;99816.72;;;18.86;62.08
60089;BME280;45961;53.574;55.878;2022-07-29T03:27:53;99810.88;;;19.04;61.75
60089;BME280;45961;53.574;55.878;2022-07-29T03:28:54;99817.13;;;18.73;61.79
60089;BME280;45961;53.574;55.878;2022-07-29T03:29:55;99809.88;;;18.82;62.34
60089;BME280;45961;53.574;55.878;2022-07-29T03:30:56;99814.50;;;19.00;61.98
60089;BME280;45961;53.574;55.878;2022-07-29T03:31:57;99825.69;;;19.07;61.65
60089;BME280;45961;53.574;55.878;2022-07-29T03:32:58;99817.47;;;18.60;62.86
60089;BME280;45961;53.574;55.878;2022-07-29T03:33:59;99814.94;;;18.57;62.94
60089;BME280;45961;53.574;55.878;2022-07-29T03:35:00;99823.84;;;18.81;62.82
60089;BME280;45961;53.574;55.878;2022-07-29T03:36:01;99817.38;;;18.92;62.66
60089;BME280;45961;53.574;55.878;2022-07-29T03:37:03;99819.06;;;18.95;62.30
60089;BME280;45961;53.574;55.878;2022-07-29T03:38:04;99812.91;;;18.66;63.22
60089;BME280;45961;53.574;55.878;2022-07-29T03:39:05;99821.78;;;18.62;63.55
60089;BME280;45961;53.574;55.878;2022-07-29T03:40:08;99825.84;;;18.43;64.35
60089;BME280;45961;53.574;55.878;2022-07-29T03:41:11;99814.88;;;18.30;64.78
60089;BME280;45961;53.574;55.878;2022-07-29T03:42:15;99807.81;;;18.62;64.04
60089;BME280;45961;53.574;55.878;2022-07-29T03:43:17;99815.63;;;18.63;63.99
60089;BME280;45961;53.574;55.878;2022-07-29T03:44:21;99823.81;;;18.82;63.29
60089;BME280;45961;53.574;55.878;2022-07-29T03:45:23;99811.19;;;18.95;63.35
60089;BME280;45961;53.574;55.878;2022-07-29T03:46:29;99818.84;;;19.01;63.06
60089;BME280;45961;53.574;55.878;2022-07-29T03:47:33;99820.44;;;19.07;62.92
60089;BME280;45961;53.574;55.878;2022-07-29T03:48:37;99820.28;;;19.11;62.33
60089;BME280;45961;53.574;55.878;2022-07-29T03:49:40;99810.97;;;19.01;62.92
60089;BME280;45961;53.574;55.878;2022-07-29T03:50:42;99825.84;;;18.74;63.33
60089;BME280;45961;53.574;55.878;2022-07-29T03:51:43;99828.34;;;18.77;63.22
60089;BME280;45961;53.574;55.878;2022-07-29T03:52:45;99821.94;;;18.58;64.04
60089;BME280;45961;53.574;55.878;2022-07-29T03:53:46;99829.09;;;18.51;64.78
60089;BME280;45961;53.574;55.878;2022-07-29T03:54:48;99814.00;;;18.59;64.27
60089;BME280;45961;53.574;55.878;2022-07-29T03:55:54;99831.34;;;18.93;63.62
60089;BME280;45961;53.574;55.878;2022-07-29T03:57:01;99822.22;;;18.77;63.98
60089;BME280;45961;53.574;55.878;2022-07-29T03:58:02;99826.25;;;18.88;63.49
60089;BME280;45961;53.574;55.878;2022-07-29T03:59:04;99828.53;;;18.99;63.44
60089;BME280;45961;53.574;55.878;2022-07-29T04:00:05;99829.44;;;18.68;64.57
60089;BME280;45961;53.574;55.878;2022-07-29T04:01:07;99830.94;;;18.79;64.86
60089;BME280;45961;53.574;55.878;2022-07-29T04:02:11;99827.53;;;18.75;64.20
60089;BME280;45961;53.574;55.878;2022-07-29T04:03:12;99819.06;;;18.95;63.71
60089;BME280;45961;53.574;55.878;2022-07-29T04:04:13;99810.47;;;19.16;63.10
60089;BME280;45961;53.574;55.878;2022-07-29T04:05:15;99818.00;;;19.27;63.07
60089;BME280;45961;53.574;55.878;2022-07-29T04:06:16;99819.28;;;19.42;62.80
60089;BME280;45961;53.574;55.878;2022-07-29T04:07:17;99814.41;;;19.56;62.47
60089;BME280;45961;53.574;55.878;2022-07-29T04:08:18;99817.44;;;19.44;62.38
60089;BME280;45961;53.574;55.878;2022-07-29T04:09:19;99820.00;;;19.72;61.88
60089;BME280;45961;53.574;55.878;2022-07-29T04:10:20;99815.50;;;19.76;62.08
60089;BME280;45961;53.574;55.878;2022-07-29T04:11:21;99823.06;;;19.85;61.67
60089;BME280;45961;53.574;55.878;2022-07-29T04:12:22;99821.41;;;19.82;61.06
60089;BME280;45961;53.574;55.878;2022-07-29T04:13:23;99821.94;;;19.92;61.43
60089;BME280;45961;53.574;55.878;2022-07-29T04:14:24;99820.00;;;19.97;60.76
60089;BME280;45961;53.574;55.878;2022-07-29T04:15:28;99799.53;;;20.07;60.50
60089;BME280;45961;53.574;55.878;2022-07-29T04:16:29;99816.81;;;20.12;60.12
60089;BME280;45961;53.574;55.878;2022-07-29T04:17:30;99821.34;;;19.84;61.41
60089;BME280;45961;53.574;55.878;2022-07-29T04:18:31;99823.66;;;19.93;61.04
60089;BME280;45961;53.574;55.878;2022-07-29T04:19:32;99827.09;;;19.70;61.60
60089;BME280;45961;53.574;55.878;2022-07-29T04:20:33;99826.69;;;19.82;61.48
60089;BME280;45961;53.574;55.878;2022-07-29T04:21:40;99826.53;;;20.10;61.22
60089;BME280;45961;53.574;55.878;2022-07-29T04:22:42;99820.84;;;20.23;60.95
60089;BME280;45961;53.574;55.878;2022-07-29T04:23:43;99830.91;;;20.35;60.16
60089;BME280;45961;53.574;55.878;2022-07-29T04:24:45;99830.81;;;20.36;59.79
60089;BME280;45961;53.574;55.878;2022-07-29T04:25:46;99833.78;;;20.52;59.80
60089;BME280;45961;53.574;55.878;2022-07-29T04:26:47;99822.22;;;20.56;59.45
60089;BME280;45961;53.574;55.878;2022-07-29T04:27:48;99832.44;;;20.64;58.97
60089;BME280;45961;53.574;55.878;2022-07-29T04:29:01;99824.25;;;20.25;59.66
60089;BME280;45961;53.574;55.878;2022-07-29T04:30:03;99827.69;;;20.27;60.54
60089;BME280;45961;53.574;55.878;2022-07-29T04:31:04;99827.41;;;19.86;59.90
60089;BME280;45961;53.574;55.878;2022-07-29T04:32:05;99823.50;;;19.46;60.88
60089;BME280;45961;53.574;55.878;2022-07-29T04:33:06;99821.25;;;19.62;61.96
60089;BME280;45961;53.574;55.878;2022-07-29T04:34:07;99829.38;;;20.04;61.30
60089;BME280;45961;53.574;55.878;2022-07-29T04:35:09;99827.00;;;19.98;60.93
60089;BME280;45961;53.574;55.878;2022-07-29T04:36:10;99815.28;;;19.82;60.97
60089;BME280;45961;53.574;55.878;2022-07-29T04:37:11;99821.63;;;19.76;62.14
60089;BME280;45961;53.574;55.878;2022-07-29T04:38:12;99824.59;;;20.15;60.93
60089;BME280;45961;53.574;55.878;2022-07-29T04:39:13;99822.16;;;20.34;60.51
60089;BME280;45961;53.574;55.878;2022-07-29T04:40:14;99820.91;;;20.68;59.92
60089;BME280;45961;53.574;55.878;2022-07-29T04:41:15;99815.78;;;20.40;59.50
60089;BME280;45961;53.574;55.878;2022-07-29T04:42:16;99815.22;;;20.79;58.41
60089;BME280;45961;53.574;55.878;2022-07-29T04:43:17;99823.28;;;20.74;58.67
60089;BME280;45961;53.574;55.878;2022-07-29T04:44:18;99816.91;;;21.02;58.21
60089;BME280;45961;53.574;55.878;2022-07-29T04:45:19;99826.84;;;20.95;57.70
60089;BME280;45961;53.574;55.878;2022-07-29T04:46:20;99818.25;;;20.90;58.19
60089;BME280;45961;53.574;55.878;2022-07-29T04:47:21;99822.06;;;21.05;58.27
60089;BME280;45961;53.574;55.878;2022-07-29T04:48:25;99824.69;;;21.05;57.64
60089;BME280;45961;53.574;55.878;2022-07-29T04:49:26;99813.47;;;20.78;58.00
60089;BME280;45961;53.574;55.878;2022-07-29T04:50:28;99817.53;;;20.86;58.39
60089;BME280;45961;53.574;55.878;2022-07-29T04:51:29;99815.78;;;20.87;58.78
60089;BME280;45961;53.574;55.878;2022-07-29T04:52:30;99811.81;;;20.53;59.75
60089;BME280;45961;53.574;55.878;2022-07-29T04:53:31;99820.63;;;20.74;59.72
60089;BME280;45961;53.574;55.878;2022-07-29T04:54:32;99809.94;;;21.01;59.34
60089;BME280;45961;53.574;55.878;2022-07-29T04:55:33;99813.75;;;21.15;58.16
60089;BME280;45961;53.574;55.878;2022-07-29T04:56:34;99813.84;;;20.68;58.07
60089;BME280;45961;53.574;55.878;2022-07-29T04:57:35;99809.69;;;20.85;58.25
60089;BME280;45961;53.574;55.878;2022-07-29T04:58:37;99817.22;;;20.72;57.59
60089;BME280;45961;53.574;55.878;2022-07-29T04:59:38;99813.00;;;20.90;57.85
60089;BME280;45961;53.574;55.878;2022-07-29T05:00:39;99811.19;;;20.92;58.00
60089;BME280;45961;53.574;55.878;2022-07-29T05:01:40;99809.22;;;21.19;57.59
60089;BME280;45961;53.574;55.878;2022-07-29T05:02:41;99802.63;;;21.29;57.53
60089;BME280;45961;53.574;55.878;2022-07-29T05:03:42;99819.25;;;21.09;57.99
60089;BME280;45961;53.574;55.878;2022-07-29T05:04:43;99806.50;;;21.20;57.04
60089;BME280;45961;53.574;55.878;2022-07-29T05:05:44;99791.75;;;21.16;57.04
60089;BME280;45961;53.574;55.878;2022-07-29T05:06:45;99810.38;;;21.54;57.03
60089;BME280;45961;53.574;55.878;2022-07-29T05:07:46;99807.91;;;21.72;56.99
60089;BME280;45961;53.574;55.878;2022-07-29T05:08:47;99807.75;;;21.54;57.36
60089;BME280;45961;53.574;55.878;2022-07-29T05:09:48;99799.72;;;21.57;57.80
60089;BME280;45961;53.574;55.878;2022-07-29T05:10:48;99804.34;;;21.52;56.64
60089;BME280;45961;53.574;55.878;2022-07-29T05:11:49;99803.19;;;21.58;56.42
60089;BME280;45961;53.574;55.878;2022-07-29T05:12:50;99812.56;;;21.65;57.78
60089;BME280;45961;53.574;55.878;2022-07-29T05:13:51;99800.94;;;21.89;57.25
60089;BME280;45961;53.574;55.878;2022-07-29T05:14:53;99803.47;;;21.72;56.15
60089;BME280;45961;53.574;55.878;2022-07-29T05:15:54;99803.41;;;21.74;55.95
60089;BME280;45961;53.574;55.878;2022-07-29T05:16:55;99800.50;;;21.80;55.65
60089;BME280;45961;53.574;55.878;2022-07-29T05:17:57;99806.19;;;21.91;54.67
60089;BME280;45961;53.574;55.878;2022-07-29T05:18:58;99781.38;;;21.75;54.20
60089;BME280;45961;53.574;55.878;2022-07-29T05:19:59;99801.38;;;21.80;54.71
60089;BME280;45961;53.574;55.878;2022-07-29T05:21:00;99793.34;;;21.83;54.64
60089;BME280;45961;53.574;55.878;2022-07-29T05:22:01;99791.06;;;21.94;55.05
60089;BME280;45961;53.574;55.878;2022-07-29T05:23:03;99800.22;;;21.86;54.38
60089;BME280;45961;53.574;55.878;2022-07-29T05:24:04;99794.09;;;21.85;53.96
60089;BME280;45961;53.574;55.878;2022-07-29T05:25:05;99783.59;;;21.65;55.08
60089;BME280;45961;53.574;55.878;2022-07-29T05:26:06;99799.03;;;21.93;54.29
60089;BME280;45961;53.574;55.878;2022-07-29T05:27:07;99785.38;;;22.04;53.81
60089;BME280;45961;53.574;55.878;2022-07-29T05:28:08;99789.63;;;22.27;53.47
60089;BME280;45961;53.574;55.878;2022-07-29T05:29:09;99790.28;;;22.32;53.79
60089;BME280;45961;53.574;55.878;2022-07-29T05:30:10;99796.13;;;22.20;53.39
60089;BME280;45961;53.574;55.878;2022-07-29T05:31:11;99790.66;;;22.24;53.68
60089;BME280;45961;53.574;55.878;2022-07-29T05:32:12;99794.91;;;22.46;53.86
60089;BME280;45961;53.574;55.878;2022-07-29T05:33:13;99795.25;;;22.19;52.18
60089;BME280;45961;53.574;55.878;2022-07-29T05:34:14;99789.38;;;22.12;53.08
60089;BME280;45961;53.574;55.878;2022-07-29T05:35:16;99784.91;;;22.14;53.56
60089;BME280;45961;53.574;55.878;2022-07-29T05:36:17;99788.38;;;22.35;53.47
60089;BME280;45961;53.574;55.878;2022-07-29T05:37:19;99796.25;;;22.54;53.41
60089;BME280;45961;53.574;55.878;2022-07-29T05:38:21;99783.44;;;22.65;52.83
60089;BME280;45961;53.574;55.878;2022-07-29T05:39:22;99782.69;;;22.81;52.62
60089;BME280;45961;53.574;55.878;2022-07-29T05:40:23;99787.03;;;22.82;52.47
60089;BME280;45961;53.574;55.878;2022-07-29T05:41:24;99780.44;;;22.73;52.53
60089;BME280;45961;53.574;55.878;2022-07-29T05:42:26;99787.06;;;22.63;52.19
60089;BME280;45961;53.574;55.878;2022-07-29T05:43:27;99781.66;;;22.47;52.80
60089;BME280;45961;53.574;55.878;2022-07-29T05:44:28;99781.72;;;22.64;52.52